Decoded Metar for KPEO (PENN YAN in NY, USA) (IATA:PEO) | Meteo·Mobile Aviation Weather
aviador You're here:

KPEO Decoded Metar

PENN YAN in NY, USA
Report Time2018-10-20 21:06:00
UTC Time2018-10-20 21:38:17
Flight Rules mvfr MVFR
Wind310° at 07 kt
W.Decomp.*RWY 28: 5.2 kt HW 4.7 kt RCW
RWY 01: 4.7 kt HW 5.2 kt LCW
W.Rank310° ranks 11
Current wind is below 310° avg. (7.7)
Visibility8047 m
Phenomena:Light Rain
Mist
Clouds:Few 009 Hf
Overcast 032 Hf
Expected CloudBase > 800 ft AGL from Temp-Dew spread
Ceiling3,200 ft
Temp06°C (ISA -7)
Dew Point04°C (87% RH)
AAT2.2°C
QNH1004 hPa
Density Alt377 ft
Elevation840 ft
Report Wrong Elevation
Raw Report
KPEO 202106Z AUTO 31007KT 5SM -RA BR FEW009 OVC032 06/04 A2965 RMK
AO2 P0003 T00610044=

Extra information for KPEO:More info

Metar Taf Metar & Taf Last 4 Metars F.Rules Stats Wind Profile Meteogram Temp Stats Airport Information Weather charts Add Link Nearby VenuesMetar ALERT Operation Metar Decoded Social comments

AIRNAV info for KPEO